createdAt,value
2022-08-21T00:01:27.452Z,24.10
2022-08-21T00:03:58.933Z,24.10
2022-08-21T00:06:29.862Z,24.10
2022-08-21T00:09:05.590Z,24.20
2022-08-21T00:11:32.861Z,24.20
2022-08-21T00:14:04.275Z,24.20
2022-08-21T00:16:35.647Z,24.20
2022-08-21T00:19:07.778Z,24.30
2022-08-21T00:21:44.320Z,24.30
2022-08-21T00:24:12.582Z,24.30
2022-08-21T00:26:44.689Z,24.40
2022-08-21T00:29:15.939Z,24.40
2022-08-21T00:32:04.166Z,24.40
2022-08-21T00:34:38.516Z,24.40
2022-08-21T00:37:10.180Z,24.40
2022-08-21T00:39:41.886Z,24.40
2022-08-21T00:42:14.850Z,24.40
2022-08-21T00:44:47.496Z,24.50
2022-08-21T00:47:21.349Z,24.50
2022-08-21T00:49:55.365Z,24.60
2022-08-21T00:52:29.747Z,24.60
2022-08-21T00:55:02.711Z,24.60
2022-08-21T00:57:37.212Z,24.60
2022-08-21T01:00:12.204Z,24.70
2022-08-21T01:02:44.633Z,24.70
2022-08-21T01:05:16.734Z,24.80
2022-08-21T01:07:47.844Z,24.80
2022-08-21T01:10:24.425Z,24.90
2022-08-21T01:12:54.055Z,24.90
2022-08-21T01:15:27.393Z,25.00
2022-08-21T01:17:58.502Z,25.00
2022-08-21T01:20:32.347Z,25.10
2022-08-21T01:23:03.655Z,25.20
2022-08-21T01:25:36.443Z,25.20
2022-08-21T01:28:09.725Z,25.30
2022-08-21T01:30:42.071Z,25.30
2022-08-21T01:33:13.538Z,25.30
2022-08-21T01:35:44.774Z,25.40
2022-08-21T01:38:15.731Z,25.40
2022-08-21T01:40:46.756Z,25.40
2022-08-21T01:43:17.683Z,25.50
2022-08-21T01:45:49.862Z,25.50
2022-08-21T01:48:20.807Z,25.60
2022-08-21T01:50:56.741Z,25.60
2022-08-21T01:53:33.074Z,25.60
2022-08-21T01:55:56.645Z,25.70
2022-08-21T01:58:27.471Z,25.80
2022-08-21T02:00:58.359Z,25.80
2022-08-21T02:03:36.011Z,25.90
2022-08-21T02:06:01.458Z,26.00
2022-08-21T02:08:32.907Z,26.10
2022-08-21T02:11:04.035Z,26.20
2022-08-21T02:13:35.505Z,26.30
2022-08-21T02:16:06.709Z,26.40
2022-08-21T02:18:37.954Z,26.50
2022-08-21T02:21:09.575Z,26.60
2022-08-21T02:23:40.422Z,26.60
2022-08-21T02:26:12.173Z,26.60
2022-08-21T02:28:43.311Z,26.60
2022-08-21T02:31:14.535Z,26.50
2022-08-21T02:33:45.362Z,26.50
2022-08-21T02:36:16.872Z,26.50
2022-08-21T02:38:48.428Z,26.50
2022-08-21T02:41:21.833Z,26.50
2022-08-21T02:43:52.675Z,26.50
2022-08-21T02:46:24.531Z,26.50
2022-08-21T02:48:55.474Z,26.50
2022-08-21T02:51:27.248Z,26.50
2022-08-21T02:53:58.444Z,26.50
2022-08-21T02:56:31.569Z,26.50
2022-08-21T02:59:01.501Z,26.50
2022-08-21T03:01:32.474Z,26.50
2022-08-21T03:04:03.370Z,26.40
2022-08-21T03:06:34.102Z,26.40
2022-08-21T03:09:05.116Z,26.40
2022-08-21T03:11:35.926Z,26.40
2022-08-21T03:14:07.484Z,26.40
2022-08-21T03:16:38.236Z,26.40
2022-08-21T03:19:09.370Z,26.40
2022-08-21T03:21:40.103Z,26.30
2022-08-21T03:24:11.473Z,26.40
2022-08-21T03:26:42.302Z,26.40
2022-08-21T03:29:13.134Z,26.40
2022-08-21T03:31:44.592Z,26.40
2022-08-21T03:34:16.340Z,26.40
2022-08-21T03:36:47.204Z,26.50
2022-08-21T03:39:18.882Z,26.50
2022-08-21T03:41:49.648Z,26.50
2022-08-21T03:44:20.797Z,26.50
2022-08-21T03:46:51.584Z,26.60
2022-08-21T03:49:22.541Z,26.70
2022-08-21T03:51:55.566Z,26.80
2022-08-21T03:54:28.875Z,26.80
2022-08-21T03:57:00.040Z,26.90
2022-08-21T03:59:31.357Z,26.90
2022-08-21T04:02:04.921Z,26.90
2022-08-21T04:04:37.146Z,27.00
2022-08-21T04:07:08.688Z,27.00
2022-08-21T04:09:39.756Z,27.10
2022-08-21T04:12:11.005Z,27.10
2022-08-21T04:14:41.865Z,27.10
2022-08-21T04:17:12.599Z,27.10
2022-08-21T04:19:43.271Z,27.10
2022-08-21T04:22:14.201Z,27.10
2022-08-21T04:24:45.072Z,27.10
2022-08-21T04:27:15.995Z,27.10
2022-08-21T04:29:46.940Z,27.10
2022-08-21T04:32:19.122Z,27.20
2022-08-21T04:34:49.857Z,27.20
2022-08-21T04:37:20.719Z,27.20
2022-08-21T04:39:53.542Z,27.20
2022-08-21T04:42:23.615Z,27.20
2022-08-21T04:44:54.777Z,27.30
2022-08-21T04:47:52.206Z,27.40
2022-08-21T04:49:58.550Z,27.50
2022-08-21T04:52:29.614Z,27.60
2022-08-21T04:55:00.447Z,27.80
2022-08-21T04:57:36.711Z,27.90
2022-08-21T05:00:05.772Z,28.00
2022-08-21T05:02:36.719Z,28.20
2022-08-21T05:05:08.140Z,28.30
2022-08-21T05:07:42.235Z,28.50
2022-08-21T05:10:13.982Z,28.50
2022-08-21T05:12:47.093Z,28.50
2022-08-21T05:15:19.339Z,28.50
2022-08-21T05:18:09.120Z,28.50
2022-08-21T05:20:40.310Z,28.60
2022-08-21T05:23:13.535Z,28.60
2022-08-21T05:25:46.049Z,28.60
2022-08-21T05:28:16.841Z,28.50
2022-08-21T05:30:48.510Z,28.50
2022-08-21T05:33:19.696Z,28.40
2022-08-21T05:35:53.570Z,28.30
2022-08-21T05:38:24.645Z,28.20
2022-08-21T05:40:55.958Z,28.20
2022-08-21T05:43:26.838Z,28.10
2022-08-21T05:45:57.621Z,28.00
2022-08-21T05:48:28.765Z,28.00
2022-08-21T05:50:59.636Z,27.90
2022-08-21T05:53:30.233Z,27.90
2022-08-21T05:56:00.953Z,27.90
2022-08-21T05:58:31.791Z,27.90
2022-08-21T06:01:04.496Z,27.90
2022-08-21T06:03:38.582Z,27.90
2022-08-21T06:06:10.054Z,27.90
2022-08-21T06:08:41.766Z,27.90
2022-08-21T06:11:13.500Z,27.90
2022-08-21T06:13:44.452Z,28.00
2022-08-21T06:16:17.774Z,28.00
2022-08-21T06:18:49.205Z,28.10
2022-08-21T06:21:20.431Z,28.20
2022-08-21T06:23:51.293Z,28.30
2022-08-21T06:26:23.024Z,28.40
2022-08-21T06:28:55.897Z,28.50
2022-08-21T06:31:29.492Z,28.70
2022-08-21T06:34:00.678Z,28.70
2022-08-21T06:36:31.609Z,28.80
2022-08-21T06:39:02.394Z,28.90
2022-08-21T06:41:37.801Z,28.90
2022-08-21T06:44:07.779Z,28.90
2022-08-21T06:46:38.745Z,28.80
2022-08-21T06:49:09.985Z,28.90
2022-08-21T06:51:42.582Z,28.80
2022-08-21T06:54:13.322Z,28.80
2022-08-21T06:56:44.184Z,28.80
2022-08-21T06:59:15.548Z,28.80
2022-08-21T07:01:46.732Z,28.80
2022-08-21T07:04:17.731Z,28.90
2022-08-21T07:06:48.998Z,28.90
2022-08-21T07:09:24.391Z,28.90
2022-08-21T07:11:54.709Z,28.90
2022-08-21T07:14:26.865Z,28.90
2022-08-21T07:16:57.729Z,28.90
2022-08-21T07:19:28.933Z,28.90
2022-08-21T07:22:02.348Z,28.90
2022-08-21T07:24:33.574Z,28.80
2022-08-21T07:27:08.205Z,28.80
2022-08-21T07:29:37.166Z,28.80
2022-08-21T07:32:08.684Z,28.90
2022-08-21T07:34:39.689Z,28.90
2022-08-21T07:37:10.875Z,28.90
2022-08-21T07:39:41.891Z,29.00
2022-08-21T07:42:12.983Z,29.10
2022-08-21T07:44:43.975Z,29.20
2022-08-21T07:47:14.879Z,29.20
2022-08-21T07:49:45.814Z,29.20
2022-08-21T07:52:17.518Z,29.30
2022-08-21T07:54:48.276Z,29.30
2022-08-21T07:57:19.194Z,29.30
2022-08-21T07:59:51.311Z,29.30
2022-08-21T08:02:24.838Z,29.30
2022-08-21T08:04:55.982Z,29.40
2022-08-21T08:07:26.928Z,29.50
2022-08-21T08:09:58.238Z,29.60
2022-08-21T08:12:30.874Z,29.60
2022-08-21T08:15:03.324Z,29.70
2022-08-21T08:17:34.981Z,29.70
2022-08-21T08:20:06.106Z,29.80
2022-08-21T08:22:39.858Z,29.80
2022-08-21T08:25:12.943Z,29.90
2022-08-21T08:27:44.703Z,30.00
2022-08-21T08:30:18.399Z,30.10
2022-08-21T08:32:50.577Z,30.20
2022-08-21T08:35:24.190Z,30.20
2022-08-21T08:37:54.818Z,30.30
2022-08-21T08:40:28.281Z,30.30
2022-08-21T08:42:59.457Z,30.40
2022-08-21T08:45:32.953Z,30.30
2022-08-21T08:48:06.625Z,30.40
2022-08-21T08:50:41.453Z,30.30
2022-08-21T08:53:14.630Z,30.30
2022-08-21T08:55:48.168Z,30.20
2022-08-21T08:58:22.114Z,30.20
2022-08-21T09:00:55.114Z,30.20
2022-08-21T09:03:28.000Z,30.10
2022-08-21T09:06:01.168Z,30.10
2022-08-21T09:08:34.456Z,30.10
2022-08-21T09:11:06.454Z,30.10
2022-08-21T09:13:39.662Z,30.00
2022-08-21T09:16:11.273Z,30.00
2022-08-21T09:18:44.529Z,30.00
2022-08-21T09:21:17.792Z,30.00
2022-08-21T09:24:10.352Z,30.00
2022-08-21T09:26:44.363Z,30.00
2022-08-21T09:29:16.115Z,30.00
2022-08-21T09:31:47.165Z,30.00
2022-08-21T09:34:20.484Z,30.00
2022-08-21T09:36:54.267Z,29.90
2022-08-21T09:39:27.761Z,29.90
2022-08-21T09:42:01.068Z,29.80
2022-08-21T09:44:34.029Z,29.80
2022-08-21T09:47:05.512Z,29.80
2022-08-21T09:49:38.999Z,29.80
2022-08-21T09:52:12.178Z,29.70
2022-08-21T09:54:44.213Z,29.60
2022-08-21T09:57:15.733Z,29.60
2022-08-21T09:59:49.064Z,29.60
2022-08-21T10:02:22.611Z,29.50
2022-08-21T10:04:56.305Z,29.50
2022-08-21T10:07:29.706Z,29.50
2022-08-21T10:10:03.533Z,29.50
2022-08-21T10:12:37.416Z,29.50
2022-08-21T10:15:11.016Z,29.50
2022-08-21T10:17:44.358Z,29.50
2022-08-21T10:20:17.523Z,29.50
2022-08-21T10:22:49.311Z,29.50
2022-08-21T10:25:22.918Z,29.50
2022-08-21T10:27:54.452Z,29.40
2022-08-21T10:30:28.025Z,29.50
2022-08-21T10:33:01.423Z,29.40
2022-08-21T10:35:36.557Z,29.40
2022-08-21T10:38:09.961Z,29.40
2022-08-21T10:40:41.832Z,29.40
2022-08-21T10:43:15.107Z,29.30
2022-08-21T10:45:48.594Z,29.30
2022-08-21T10:48:21.843Z,29.30
2022-08-21T10:50:55.913Z,29.20
2022-08-21T10:53:29.165Z,29.20
2022-08-21T10:56:00.766Z,29.10
2022-08-21T10:58:34.040Z,29.10
2022-08-21T11:01:07.724Z,29.10
2022-08-21T11:03:39.939Z,29.10
2022-08-21T11:06:13.104Z,29.00
2022-08-21T11:08:47.637Z,29.00
2022-08-21T11:11:22.117Z,29.00
2022-08-21T11:13:54.474Z,29.00
2022-08-21T11:16:27.633Z,29.00
2022-08-21T11:19:01.001Z,28.90
2022-08-21T11:21:34.271Z,28.90
2022-08-21T11:24:06.904Z,28.90
2022-08-21T11:26:40.205Z,28.90
2022-08-21T11:29:14.098Z,28.90
2022-08-21T11:31:47.597Z,28.90
2022-08-21T11:34:19.672Z,28.80
2022-08-21T11:36:52.893Z,28.80
2022-08-21T11:39:24.622Z,28.80
2022-08-21T11:41:58.312Z,28.70
2022-08-21T11:44:29.969Z,28.80
2022-08-21T11:47:03.256Z,28.70
2022-08-21T11:49:36.522Z,28.70
2022-08-21T11:52:11.024Z,28.70
2022-08-21T11:54:45.611Z,28.70
2022-08-21T11:57:18.909Z,28.70
2022-08-21T11:59:52.076Z,28.70
2022-08-21T12:02:25.456Z,28.70
2022-08-21T12:04:59.235Z,28.60
2022-08-21T12:07:32.696Z,28.60
2022-08-21T12:10:04.497Z,28.60
2022-08-21T12:12:37.700Z,28.60
2022-08-21T12:15:11.107Z,28.60
2022-08-21T12:17:44.559Z,28.60
2022-08-21T12:20:17.749Z,28.60
2022-08-21T12:22:51.896Z,28.60
2022-08-21T12:25:25.087Z,28.60
2022-08-21T12:27:58.243Z,28.60
2022-08-21T12:30:30.311Z,28.60
2022-08-21T12:33:03.585Z,28.50
2022-08-21T12:35:37.198Z,28.50
2022-08-21T12:38:10.791Z,28.60
2022-08-21T12:40:43.947Z,28.50
2022-08-21T12:43:17.598Z,28.60
2022-08-21T12:45:51.319Z,28.50
2022-08-21T12:48:25.178Z,28.60
2022-08-21T12:51:00.128Z,28.50
2022-08-21T12:53:33.491Z,28.50
2022-08-21T12:56:06.686Z,28.50
2022-08-21T12:58:37.846Z,28.50
2022-08-21T13:01:11.488Z,28.50
2022-08-21T13:03:42.856Z,28.50
2022-08-21T13:06:16.126Z,28.50
2022-08-21T13:08:49.072Z,28.50
2022-08-21T13:11:32.712Z,28.50
2022-08-21T13:13:58.179Z,28.50
2022-08-21T13:16:31.840Z,28.40
2022-08-21T13:19:05.859Z,28.40
2022-08-21T13:21:39.339Z,28.40
2022-08-21T13:24:38.756Z,28.40
2022-08-21T13:26:46.137Z,28.40
2022-08-21T13:29:19.803Z,28.40
2022-08-21T13:31:55.037Z,28.40
2022-08-21T13:34:31.101Z,28.40
2022-08-21T13:37:07.008Z,28.40
2022-08-21T13:39:41.365Z,28.40
2022-08-21T13:42:14.444Z,28.40
2022-08-21T13:44:47.735Z,28.40
2022-08-21T13:47:19.942Z,28.40
2022-08-21T13:49:58.485Z,28.40
2022-08-21T13:52:28.736Z,28.40
2022-08-21T13:55:02.111Z,28.40
2022-08-21T13:57:35.305Z,28.40
2022-08-21T14:00:08.501Z,28.40
2022-08-21T14:02:42.187Z,28.40
2022-08-21T14:05:15.558Z,28.40
2022-08-21T14:07:47.485Z,28.30
2022-08-21T14:10:21.620Z,28.30
2022-08-21T14:12:53.330Z,28.30
2022-08-21T14:15:30.341Z,28.20
2022-08-21T14:18:04.069Z,28.20
2022-08-21T14:20:37.230Z,28.10
2022-08-21T14:23:08.399Z,28.10
2022-08-21T14:25:43.808Z,28.10
2022-08-21T14:28:19.433Z,28.00
2022-08-21T14:30:51.499Z,28.00
2022-08-21T14:33:24.885Z,28.00
2022-08-21T14:35:56.519Z,28.00
2022-08-21T14:38:30.165Z,28.00
2022-08-21T14:41:04.058Z,28.00
2022-08-21T14:43:44.484Z,28.00
2022-08-21T14:46:16.629Z,27.90
2022-08-21T14:48:49.033Z,27.90
2022-08-21T14:57:46.183Z,27.90
2022-08-21T15:00:35.626Z,27.90
2022-08-21T15:03:00.295Z,27.90
2022-08-21T15:05:33.815Z,27.90
2022-08-21T15:08:04.038Z,27.90
2022-08-21T15:10:48.100Z,27.80
2022-08-21T15:13:10.300Z,27.80
2022-08-21T15:15:50.211Z,27.80
2022-08-21T15:18:24.545Z,27.80
2022-08-21T15:20:56.683Z,27.80
2022-08-21T15:23:35.122Z,27.80
2022-08-21T15:26:06.724Z,27.70
2022-08-21T15:28:44.647Z,27.70
2022-08-21T15:48:02.168Z,27.50
2022-08-21T15:51:12.041Z,27.50
2022-08-21T16:05:03.694Z,27.50
2022-08-21T16:15:54.551Z,27.40
2022-08-21T16:18:25.736Z,27.40
2022-08-21T16:20:56.878Z,27.40
2022-08-21T16:23:30.135Z,27.40
2022-08-21T16:26:05.784Z,27.30
2022-08-21T16:34:02.202Z,27.10
2022-08-21T16:36:38.456Z,27.10
2022-08-21T16:39:12.125Z,27.10
2022-08-21T16:44:33.904Z,27.00
2022-08-21T16:47:06.292Z,27.00
2022-08-21T16:49:38.390Z,26.90
2022-08-21T16:52:14.952Z,26.90
2022-08-21T16:54:49.341Z,26.90
2022-08-21T16:57:21.787Z,26.80
2022-08-21T16:59:53.597Z,26.80
2022-08-21T17:02:30.159Z,26.70
2022-08-21T17:05:02.622Z,26.60
2022-08-21T17:07:36.898Z,26.40
2022-08-21T17:10:07.030Z,26.30
2022-08-21T17:12:41.600Z,26.20
2022-08-21T17:15:16.464Z,26.10
2022-08-21T17:17:49.269Z,25.90
2022-08-21T17:20:23.442Z,25.90
2022-08-21T17:23:03.099Z,25.90
2022-08-21T17:34:19.445Z,25.80
2022-08-21T17:45:17.266Z,25.80
2022-08-21T18:06:44.484Z,25.80
2022-08-21T18:09:27.058Z,25.80
2022-08-21T18:12:00.719Z,25.80
2022-08-21T18:14:34.004Z,25.90
2022-08-21T18:17:05.948Z,25.90
2022-08-21T18:19:37.034Z,25.90
2022-08-21T18:22:10.970Z,25.90
2022-08-21T18:24:42.288Z,25.80
2022-08-21T18:27:17.736Z,25.80
2022-08-21T18:29:51.924Z,25.80
2022-08-21T18:32:30.667Z,25.80
2022-08-21T18:34:59.792Z,25.70
2022-08-21T18:37:32.099Z,25.70
2022-08-21T18:40:04.524Z,25.70
2022-08-21T18:42:37.924Z,25.70
2022-08-21T18:45:12.009Z,25.80
2022-08-21T18:47:45.280Z,25.70
2022-08-21T18:50:20.810Z,25.70
2022-08-21T18:52:54.530Z,25.70
2022-08-21T18:55:25.304Z,25.70
2022-08-21T18:57:58.524Z,25.70
2022-08-21T19:00:31.857Z,25.70
2022-08-21T19:03:06.133Z,25.70
2022-08-21T19:05:37.353Z,25.70
2022-08-21T19:08:10.117Z,25.70
2022-08-21T19:13:35.648Z,25.70
2022-08-21T19:16:08.162Z,25.70
2022-08-21T19:18:41.656Z,25.70
2022-08-21T19:21:13.080Z,25.70
2022-08-21T19:23:44.718Z,25.70
2022-08-21T19:26:15.580Z,25.60
2022-08-21T19:31:42.381Z,25.60
2022-08-21T19:34:16.177Z,25.60
2022-08-21T19:36:47.798Z,25.60
2022-08-21T19:39:22.071Z,25.60
2022-08-21T19:41:55.270Z,25.50
2022-08-21T19:44:29.484Z,25.50
2022-08-21T19:49:36.713Z,25.50
2022-08-21T19:52:13.961Z,25.50
2022-08-21T19:54:40.172Z,25.40
2022-08-21T19:57:14.932Z,25.40
2022-08-21T19:59:46.977Z,25.40
2022-08-21T20:02:20.339Z,25.40
2022-08-21T20:04:53.753Z,25.40
2022-08-21T20:07:26.880Z,25.40
2022-08-21T20:09:58.724Z,25.40
2022-08-21T20:12:31.165Z,25.50
2022-08-21T20:17:38.581Z,25.40
2022-08-21T20:20:10.496Z,25.40
2022-08-21T20:22:45.962Z,25.40
2022-08-21T20:25:16.921Z,25.40
2022-08-21T20:27:49.104Z,25.40
2022-08-21T20:30:22.814Z,25.40
2022-08-21T20:32:53.511Z,25.40
2022-08-21T20:35:25.873Z,25.40
2022-08-21T20:37:58.996Z,25.30
2022-08-21T20:40:32.952Z,25.40
2022-08-21T20:43:03.866Z,25.40
2022-08-21T20:45:37.705Z,25.30
2022-08-21T20:48:15.774Z,25.40
2022-08-21T20:50:49.097Z,25.40
2022-08-21T20:53:22.355Z,25.40
2022-08-21T20:55:54.228Z,25.40
2022-08-21T20:58:29.690Z,25.40
2022-08-21T21:01:00.503Z,25.40
2022-08-21T21:03:33.690Z,25.40
2022-08-21T21:06:06.990Z,25.40
2022-08-21T21:08:41.793Z,25.40
2022-08-21T21:11:17.358Z,25.40
2022-08-21T21:13:50.739Z,25.40
2022-08-21T21:16:22.586Z,25.40
2022-08-21T21:18:55.880Z,25.40
2022-08-21T21:21:33.349Z,25.40
2022-08-21T21:24:06.464Z,25.40
2022-08-21T21:26:39.621Z,25.40
2022-08-21T21:29:12.628Z,25.40
2022-08-21T21:31:45.097Z,25.40
2022-08-21T21:34:17.283Z,25.40
2022-08-21T21:36:56.078Z,25.40
2022-08-21T21:39:26.346Z,25.40
2022-08-21T21:42:00.943Z,25.40
2022-08-21T21:44:34.101Z,25.40
2022-08-21T21:47:10.329Z,25.40
2022-08-21T21:49:43.531Z,25.40
2022-08-21T21:52:16.685Z,25.40
2022-08-21T21:54:50.450Z,25.40
2022-08-21T21:57:24.502Z,25.40
2022-08-21T22:00:00.632Z,25.40
2022-08-21T22:02:34.433Z,25.40
2022-08-21T22:05:11.625Z,25.40
2022-08-21T22:07:45.822Z,25.40
2022-08-21T22:10:30.050Z,25.40
2022-08-21T22:12:54.057Z,25.40
2022-08-21T22:15:27.357Z,25.40
2022-08-21T22:17:59.497Z,25.40
2022-08-21T22:20:32.857Z,25.30
2022-08-21T22:23:07.559Z,25.40
2022-08-21T22:25:42.922Z,25.40
2022-08-21T22:28:16.236Z,25.40
2022-08-21T22:30:49.697Z,25.40
2022-08-21T22:33:24.340Z,25.40
2022-08-21T22:35:59.886Z,25.40
2022-08-21T22:38:30.701Z,25.40
2022-08-21T22:41:03.961Z,25.40
2022-08-21T22:43:36.446Z,25.40
2022-08-21T22:46:09.952Z,25.40
2022-08-21T22:48:46.882Z,25.40
2022-08-21T22:51:20.167Z,25.40
2022-08-21T22:53:53.340Z,25.40
2022-08-21T22:56:26.847Z,25.40
2022-08-21T22:59:00.428Z,25.40
2022-08-21T23:01:30.503Z,25.50
2022-08-21T23:04:04.550Z,25.50
2022-08-21T23:06:38.872Z,25.50
2022-08-21T23:09:12.280Z,25.50
2022-08-21T23:14:18.895Z,25.50
2022-08-21T23:16:52.090Z,25.50
2022-08-21T23:19:25.373Z,25.50
2022-08-21T23:21:57.037Z,25.50
2022-08-21T23:24:31.350Z,25.50
2022-08-21T23:27:03.048Z,25.60
2022-08-21T23:29:37.624Z,25.60
2022-08-21T23:32:09.316Z,25.60
2022-08-21T23:34:46.656Z,25.60
2022-08-21T23:37:23.139Z,25.60
2022-08-21T23:39:55.894Z,25.70
2022-08-21T23:42:29.837Z,25.70
2022-08-21T23:45:14.104Z,25.70
2022-08-21T23:47:37.917Z,25.70
2022-08-21T23:50:14.496Z,25.70
2022-08-21T23:52:49.431Z,25.70
2022-08-21T23:55:22.817Z,25.70
2022-08-21T23:57:57.371Z,25.70
